Admire, KS (66830)

12:00 PM CDT on September 23, 2014 (GMT -0500)
Timmerman School Area | Change Station
CLOSE
Current Station
Personal Weather Station
Location: Emporia, KS
Elevation: 1214 ft
Nearby Weather Stations

Elev 1214 ft 38.43 °N, 96.22 °W | Updated 15 minutes ago

Partly Cloudy
Partly Cloudy
69.6 °F
Feels Like 69.6 °F
N
7.2
Wind Variable Wind from South
Gusts 9.8 mph

Today
High -- | Low -- °F
--% Chance of Precip.
Yesterday
High -- | Low -- °F
Precip. -- in
7:13 AM 7:19 PM
Waning Crescent, 0% visible
Pressure 30.18 in
Visibility 10.0 miles
Clouds Clear
Dew Point 56 °F
Humidity 62%
Rainfall 0.00 in
Snow Depth Not available.
UV 7 out of 12
Pollen 4.90 out of 12
Air Quality Not available.
Flu Activity Not available.
METAR KEMP 231653Z AUTO 17014KT 10SM CLR 22/13 A3019 RMK AO2 SLP220 T02170133

More Conditions Fewer Conditions

Pressure 30.18 in
Visibility 10.0 miles
Clouds Clear
Dew Point 56 °F
Humidity 62%
Rainfall 0.00 in
Snow Depth Not available.
UV 7 out of 12
Pollen 4.90 out of 12
Air Quality Not available.
Flu Activity Not available.
METAR KEMP 231653Z AUTO 17014KT 10SM CLR 22/13 A3019 RMK AO2 SLP220 T02170133

More Conditions Fewer Conditions

10-Day Weather Forecast

Almanac

Astronomy

Sep. 23, 2014 Rise Set
Actual Time 7:13 AM CDT 7:19 PM CDT
Civil Twilight 6:46 AM CDT 7:46 PM CDT
Nautical Twilight 6:15 AM CDT 8:17 PM CDT
Astronomical Twilight 5:44 AM CDT 8:48 PM CDT
Moon 6:38 AM CDT 6:59 PM CDT
Length of Visible Light 12h 59m
Length of Day
12h 06m
Tomorrow will be 2m 29s shorter.
Waning Crescent, 0% of the Moon is Illuminated
Today
Waning Crescent
Sep 24
New
Oct 1
First Quarter
Oct 8
Full
Oct 15
Last Quarter

Today's Extremes

State Highs State Lows

Community

WunderPhotos

Upload Photos

1,755,753 photos uploaded!

WunderBlogs® & News

Nearby

Snow Depth

Station Depth Elevation
No new snow has been reported.

Earthquake Activity

City Distance Mag. Time & Date
Medford, Oklahoma 163 miles 3.1 10:45 PM CDT
2014-09-22
Medford, Oklahoma 153 miles 3.2 2:10 AM CDT
2014-09-20
Minimum magnitude displayed is 2.5.

Coastal Water Temperatures

Place Temperature
No Stations Reporting

Nearby Weather Stations